createdAt,value
2023-05-07T00:02:56.191Z,8.82
2023-05-07T00:07:18.546Z,7.45
2023-05-07T00:11:40.917Z,8.77
2023-05-07T00:16:04.734Z,5.90
2023-05-07T00:20:26.903Z,6.68
2023-05-07T00:24:49.257Z,6.43
2023-05-07T00:29:11.342Z,7.63
2023-05-07T00:33:33.378Z,6.65
2023-05-07T00:37:55.438Z,6.90
2023-05-07T00:42:19.427Z,7.15
2023-05-07T00:46:42.105Z,5.90
2023-05-07T00:51:06.083Z,8.10
2023-05-07T00:55:28.761Z,8.80
2023-05-07T00:59:51.796Z,9.77
2023-05-07T01:04:13.831Z,9.20
2023-05-07T01:08:37.932Z,8.80
2023-05-07T01:13:01.726Z,9.55
2023-05-07T01:17:24.927Z,9.27
2023-05-07T01:21:50.142Z,10.05
2023-05-07T01:26:14.478Z,8.63
2023-05-07T01:30:42.523Z,7.90
2023-05-07T01:35:08.862Z,9.13
2023-05-07T01:39:32.201Z,9.57
2023-05-07T01:43:56.199Z,10.45
2023-05-07T01:48:19.238Z,10.18
2023-05-07T01:52:41.355Z,9.85
2023-05-07T01:57:03.399Z,11.05
2023-05-07T02:01:25.810Z,9.38
2023-05-07T02:05:48.325Z,11.20
2023-05-07T02:10:33.728Z,12.68
2023-05-07T02:14:55.982Z,10.77
2023-05-07T02:19:19.360Z,12.30
2023-05-07T02:23:41.519Z,13.40
2023-05-07T02:28:03.952Z,12.63
2023-05-07T02:32:36.161Z,12.82
2023-05-07T02:36:58.431Z,12.60
2023-05-07T02:41:22.438Z,13.25
2023-05-07T02:45:44.698Z,14.07
2023-05-07T02:50:09.192Z,12.52
2023-05-07T02:54:31.542Z,13.75
2023-05-07T02:58:54.224Z,14.18
2023-05-07T03:03:19.439Z,12.43
2023-05-07T03:07:45.300Z,11.98
2023-05-07T03:12:08.460Z,13.13
2023-05-07T03:16:30.576Z,13.98
2023-05-07T03:20:53.590Z,12.45
2023-05-07T03:25:16.176Z,12.05
2023-05-07T03:29:38.239Z,12.23
2023-05-07T03:34:00.621Z,11.52
2023-05-07T03:38:22.766Z,11.98
2023-05-07T03:42:45.294Z,11.05
2023-05-07T03:47:09.235Z,10.63
2023-05-07T03:51:32.164Z,9.70
2023-05-07T03:55:55.326Z,11.52
2023-05-07T04:00:18.264Z,16.65
2023-05-07T04:04:43.400Z,10.32
2023-05-07T04:09:05.716Z,9.57
2023-05-07T04:13:27.759Z,9.95
2023-05-07T04:17:51.482Z,9.70
2023-05-07T04:22:16.920Z,11.02
2023-05-07T04:26:39.124Z,9.50
2023-05-07T04:31:01.768Z,10.27
2023-05-07T04:35:25.597Z,10.25
2023-05-07T04:39:48.101Z,10.65
2023-05-07T04:44:10.480Z,10.68
2023-05-07T04:48:33.476Z,13.43
2023-05-07T04:52:56.917Z,11.13
2023-05-07T04:57:20.024Z,11.43
2023-05-07T05:01:42.358Z,13.07
2023-05-07T05:06:05.049Z,13.18
2023-05-07T05:10:29.983Z,12.48
2023-05-07T05:14:52.682Z,12.50
2023-05-07T05:19:15.755Z,11.98
2023-05-07T05:23:40.343Z,14.98
2023-05-07T05:28:02.599Z,13.75
2023-05-07T05:32:25.776Z,12.82
2023-05-07T05:36:51.300Z,14.55
2023-05-07T05:41:14.566Z,15.88
2023-05-07T05:45:36.813Z,13.38
2023-05-07T05:49:58.864Z,14.73
2023-05-07T05:54:21.568Z,13.20
2023-05-07T05:58:44.497Z,14.18
2023-05-07T06:03:06.933Z,12.43
2023-05-07T06:07:30.173Z,12.13
2023-05-07T06:11:52.511Z,12.52
2023-05-07T06:16:16.550Z,13.07
2023-05-07T06:20:39.365Z,10.85
2023-05-07T06:25:07.518Z,11.85
2023-05-07T06:29:33.917Z,12.10
2023-05-07T06:33:58.082Z,10.35
2023-05-07T06:38:26.381Z,11.23
2023-05-07T06:42:48.627Z,9.35
2023-05-07T06:47:21.372Z,9.48
2023-05-07T06:51:48.055Z,9.88
2023-05-07T06:56:10.801Z,11.02
2023-05-07T07:00:34.423Z,10.27
2023-05-07T07:04:56.482Z,9.80
2023-05-07T07:09:18.606Z,9.88
2023-05-07T07:13:41.418Z,9.43
2023-05-07T07:18:04.163Z,9.95
2023-05-07T07:22:26.593Z,10.40
2023-05-07T07:26:49.063Z,9.82
2023-05-07T07:31:12.438Z,8.45
2023-05-07T07:35:35.190Z,8.77
2023-05-07T07:39:58.255Z,7.97
2023-05-07T07:44:21.642Z,7.47
2023-05-07T07:48:49.122Z,6.63
2023-05-07T07:53:11.726Z,6.88
2023-05-07T07:57:34.456Z,7.63
2023-05-07T08:01:58.251Z,7.15
2023-05-07T08:06:22.707Z,6.95
2023-05-07T08:10:45.695Z,5.97
2023-05-07T08:15:16.420Z,6.38
2023-05-07T08:19:38.818Z,5.00
2023-05-07T08:24:03.681Z,4.80
2023-05-07T08:28:26.230Z,5.30
2023-05-07T08:32:48.588Z,3.88
2023-05-07T08:37:11.262Z,4.43
2023-05-07T08:41:34.062Z,3.80
2023-05-07T08:45:56.796Z,3.80
2023-05-07T08:50:23.438Z,3.35
2023-05-07T08:54:47.140Z,3.47
2023-05-07T08:59:09.537Z,5.05
2023-05-07T09:03:32.699Z,4.38
2023-05-07T09:07:58.393Z,4.15
2023-05-07T09:12:22.759Z,5.18
2023-05-07T09:16:45.172Z,4.97
2023-05-07T09:21:11.064Z,4.88
2023-05-07T09:25:34.945Z,4.68
2023-05-07T09:30:10.366Z,4.00
2023-05-07T09:34:33.340Z,4.90
2023-05-07T09:38:57.720Z,4.32
2023-05-07T09:43:20.455Z,4.38
2023-05-07T09:47:53.242Z,4.35
2023-05-07T09:52:16.284Z,4.47
2023-05-07T09:56:49.298Z,4.68
2023-05-07T10:01:15.322Z,4.30
2023-05-07T10:05:39.321Z,4.00
2023-05-07T10:10:03.055Z,3.13
2023-05-07T10:14:31.160Z,10.30
2023-05-07T10:18:55.758Z,3.05
2023-05-07T10:23:25.965Z,3.20
2023-05-07T10:27:56.357Z,4.28
2023-05-07T10:32:50.328Z,3.63
2023-05-07T10:37:20.079Z,2.92
2023-05-07T10:41:44.648Z,3.00
2023-05-07T10:46:21.310Z,4.15
2023-05-07T10:51:23.583Z,4.45
2023-05-07T10:56:18.779Z,4.32
2023-05-07T11:00:48.243Z,4.28
2023-05-07T11:05:25.071Z,3.63
2023-05-07T11:10:08.058Z,3.75
2023-05-07T11:14:55.109Z,4.00
2023-05-07T11:19:53.181Z,4.50
2023-05-07T11:24:44.396Z,4.78
2023-05-07T11:29:22.602Z,5.18
2023-05-07T11:33:48.748Z,4.53
2023-05-07T11:38:15.156Z,4.82
2023-05-07T11:42:40.315Z,4.88
2023-05-07T11:47:03.375Z,4.63
2023-05-07T11:51:30.173Z,4.32
2023-05-07T11:55:56.315Z,5.10
2023-05-07T12:00:18.919Z,4.50
2023-05-07T12:04:41.123Z,4.15
2023-05-07T12:09:03.379Z,4.45
2023-05-07T12:13:27.262Z,4.28
2023-05-07T12:17:49.982Z,4.93
2023-05-07T12:22:13.180Z,4.47
2023-05-07T12:26:41.886Z,4.47
2023-05-07T12:31:04.165Z,5.07
2023-05-07T12:35:38.097Z,5.28
2023-05-07T12:40:12.551Z,5.43
2023-05-07T12:44:35.908Z,5.38
2023-05-07T12:48:58.063Z,5.28
2023-05-07T12:53:24.528Z,5.00
2023-05-07T12:57:51.724Z,5.35
2023-05-07T13:02:13.833Z,5.50
2023-05-07T13:06:37.179Z,5.18
2023-05-07T13:11:04.674Z,5.80
2023-05-07T13:15:28.284Z,4.85
2023-05-07T13:19:50.730Z,5.03
2023-05-07T13:24:12.903Z,4.78
2023-05-07T13:28:35.360Z,4.97
2023-05-07T13:33:00.448Z,5.45
2023-05-07T13:37:22.840Z,4.78
2023-05-07T13:47:48.467Z,4.50
2023-05-07T13:52:11.626Z,5.05
2023-05-07T13:56:34.033Z,5.18
2023-05-07T14:00:56.339Z,5.20
2023-05-07T14:05:18.675Z,5.00
2023-05-07T14:09:41.722Z,4.20
2023-05-07T14:14:03.669Z,4.20
2023-05-07T14:18:25.894Z,12.48
2023-05-07T14:22:47.860Z,4.97
2023-05-07T14:33:42.758Z,5.68
2023-05-07T14:38:04.893Z,4.68
2023-05-07T14:42:26.832Z,5.88
2023-05-07T14:46:49.666Z,5.30
2023-05-07T14:51:12.216Z,5.20
2023-05-07T14:55:36.256Z,4.80
2023-05-07T14:59:58.477Z,4.53
2023-05-07T15:04:20.756Z,5.18
2023-05-07T15:08:42.735Z,4.72
2023-05-07T15:13:05.030Z,5.20
2023-05-07T15:17:27.483Z,4.90
2023-05-07T15:21:49.928Z,5.82
2023-05-07T15:26:12.217Z,5.55
2023-05-07T15:30:34.656Z,5.60
2023-05-07T15:34:57.214Z,5.43
2023-05-07T15:39:19.295Z,5.78
2023-05-07T15:43:50.934Z,5.25
2023-05-07T15:48:13.352Z,6.20
2023-05-07T15:52:35.772Z,6.38
2023-05-07T15:56:57.993Z,6.00
2023-05-07T16:01:21.682Z,5.97
2023-05-07T16:05:44.584Z,6.05
2023-05-07T16:10:08.546Z,6.25
2023-05-07T16:14:30.638Z,6.25
2023-05-07T16:18:52.677Z,5.88
2023-05-07T16:23:14.560Z,5.82
2023-05-07T16:27:36.500Z,6.43
2023-05-07T16:31:59.156Z,5.78
2023-05-07T16:36:21.282Z,6.07
2023-05-07T16:40:43.409Z,6.35
2023-05-07T16:45:06.937Z,6.10
2023-05-07T16:49:29.114Z,5.95
2023-05-07T16:53:52.468Z,5.93
2023-05-07T16:58:15.602Z,5.68
2023-05-07T17:02:37.947Z,4.63
2023-05-07T17:07:00.124Z,5.00
2023-05-07T17:11:22.739Z,5.40
2023-05-07T17:15:46.651Z,5.20
2023-05-07T17:20:10.039Z,5.10
2023-05-07T17:24:32.618Z,4.85
2023-05-07T17:28:55.139Z,5.60
2023-05-07T17:33:21.576Z,4.88
2023-05-07T17:37:52.447Z,5.70
2023-05-07T17:42:14.815Z,5.20
2023-05-07T17:46:37.176Z,6.30
2023-05-07T17:51:04.050Z,6.43
2023-05-07T17:55:26.340Z,5.80
2023-05-07T17:59:48.378Z,5.70
2023-05-07T18:04:11.061Z,6.47
2023-05-07T18:08:34.894Z,6.00
2023-05-07T18:12:57.283Z,6.45
2023-05-07T18:17:19.552Z,6.55
2023-05-07T18:21:41.651Z,6.68
2023-05-07T18:26:05.057Z,6.90
2023-05-07T18:30:28.475Z,7.05
2023-05-07T18:34:50.879Z,7.05
2023-05-07T18:39:13.234Z,7.60
2023-05-07T18:43:35.246Z,7.18
2023-05-07T18:47:57.256Z,7.63
2023-05-07T18:52:22.141Z,7.72
2023-05-07T18:56:44.156Z,8.40
2023-05-07T19:01:08.779Z,7.75
2023-05-07T19:05:31.346Z,8.52
2023-05-07T19:10:04.107Z,8.65
2023-05-07T19:14:28.034Z,8.65
2023-05-07T19:18:50.032Z,8.63
2023-05-07T19:23:12.350Z,8.82
2023-05-07T19:27:34.654Z,9.52
2023-05-07T19:31:56.790Z,9.52
2023-05-07T19:36:19.435Z,9.32
2023-05-07T19:40:41.642Z,9.80
2023-05-07T19:45:05.318Z,9.35
2023-05-07T19:49:27.255Z,9.25
2023-05-07T19:53:49.197Z,9.88
2023-05-07T19:58:11.409Z,10.63
2023-05-07T20:02:33.729Z,10.55
2023-05-07T20:06:57.692Z,9.90
2023-05-07T20:11:20.466Z,10.65
2023-05-07T20:15:42.786Z,10.88
2023-05-07T20:20:05.684Z,11.07
2023-05-07T20:24:27.843Z,10.30
2023-05-07T20:28:49.755Z,10.18
2023-05-07T20:33:13.207Z,11.48
2023-05-07T20:37:36.121Z,10.45
2023-05-07T20:41:59.833Z,11.38
2023-05-07T20:46:23.035Z,11.63
2023-05-07T20:50:45.498Z,11.45
2023-05-07T20:55:08.746Z,11.30
2023-05-07T20:59:30.865Z,11.13
2023-05-07T21:03:54.345Z,11.45
2023-05-07T21:08:16.439Z,11.48
2023-05-07T21:12:39.934Z,13.75
2023-05-07T21:17:02.200Z,13.13
2023-05-07T21:21:24.454Z,13.98
2023-05-07T21:25:47.793Z,13.85
2023-05-07T21:30:11.167Z,14.15
2023-05-07T21:34:33.595Z,13.50
2023-05-07T21:38:55.917Z,14.25
2023-05-07T21:43:18.048Z,14.48
2023-05-07T21:47:40.057Z,14.95
2023-05-07T21:52:02.407Z,14.10
2023-05-07T21:56:24.578Z,14.68
2023-05-07T22:06:41.654Z,13.57
2023-05-07T22:11:03.718Z,15.55
2023-05-07T22:15:25.869Z,15.68
2023-05-07T22:19:47.994Z,15.93
2023-05-07T22:24:10.213Z,15.43
2023-05-07T22:28:32.232Z,18.85
2023-05-07T22:32:54.443Z,16.73
2023-05-07T22:37:16.327Z,15.77
2023-05-07T22:41:38.696Z,16.27
2023-05-07T22:46:04.125Z,13.52
2023-05-07T22:50:26.086Z,14.80
2023-05-07T22:54:48.195Z,11.52
2023-05-07T22:59:10.195Z,10.40
2023-05-07T23:03:32.981Z,9.50
2023-05-07T23:07:56.014Z,8.23
2023-05-07T23:12:18.074Z,8.18
2023-05-07T23:16:40.132Z,8.55
2023-05-07T23:21:02.515Z,7.90
2023-05-07T23:25:24.524Z,7.90
2023-05-07T23:29:47.064Z,7.25
2023-05-07T23:34:09.144Z,6.95
2023-05-07T23:38:31.456Z,7.57
2023-05-07T23:42:53.777Z,6.82
2023-05-07T23:47:16.265Z,6.80
2023-05-07T23:51:38.532Z,7.30
2023-05-07T23:56:00.368Z,7.78
